AUA902K LOWI-LOWW
Flight info
| Callsign | AUA902K |
|---|---|
| Flight time | 0h 45m |
| Altitude | 29000 |
| Route | RTT DCT NEMAL NEMAL2W |
| Aircraft | A20N/M-SDE2E3FGHIJ1RWXY/LB1 |
Departure
| Time | 2026-05-07 01:08 |
|---|---|
| Airport | Innsbruck Airport (LOWI) |
Arrival
| Time | 2026-05-07 01:53 |
|---|---|
| Airport | Vienna International Airport (LOWW) |
| Time | Latitude | Longitude | Altitude | Speed | Heading |
|---|---|---|---|---|---|
| 2026-05-07 00:55 | 47.25803 | 11.34872 | 1900 ft | 0 kts | 172° |
| 2026-05-07 00:58 | 47.25812 | 11.34870 | 1889 ft | 4 kts | 171° |
| 2026-05-07 00:59 | 47.25851 | 11.34839 | 1891 ft | 2 kts | 81° |
| 2026-05-07 00:59 | 47.25851 | 11.34837 | 1891 ft | 1 kts | 81° |
| 2026-05-07 01:03 | 47.25853 | 11.34853 | 1891 ft | 8 kts | 81° |
| 2026-05-07 01:03 | 47.25869 | 11.34990 | 1895 ft | 16 kts | 81° |
| 2026-05-07 01:04 | 47.25888 | 11.35168 | 1897 ft | 19 kts | 81° |
| 2026-05-07 01:04 | 47.25904 | 11.35271 | 1900 ft | 0 kts | 59° |
| 2026-05-07 01:04 | 47.25925 | 11.35289 | 1900 ft | 11 kts | 13° |
| 2026-05-07 01:04 | 47.25953 | 11.35284 | 1902 ft | 0 kts | 351° |
| 2026-05-07 01:05 | 47.25975 | 11.35279 | 1897 ft | 5 kts | 351° |
| 2026-05-07 01:05 | 47.26024 | 11.35267 | 1897 ft | 9 kts | 351° |
| 2026-05-07 01:05 | 47.26100 | 11.35263 | 1900 ft | 12 kts | 26° |
| 2026-05-07 01:05 | 47.26128 | 11.35395 | 1897 ft | 16 kts | 81° |
| 2026-05-07 01:06 | 47.26142 | 11.35563 | 1897 ft | 14 kts | 93° |
| 2026-05-07 01:06 | 47.26120 | 11.35633 | 1895 ft | 7 kts | 124° |
| 2026-05-07 01:06 | 47.26137 | 11.35691 | 1887 ft | 7 kts | 18° |
| 2026-05-07 01:06 | 47.26155 | 11.35649 | 1895 ft | 6 kts | 262° |
| 2026-05-07 01:07 | 47.26155 | 11.35645 | 1896 ft | 0 kts | 262° |
| 2026-05-07 01:07 | 47.26139 | 11.35486 | 1898 ft | 49 kts | 261° |
| 2026-05-07 01:08 | 47.26045 | 11.34627 | 1906 ft | 120 kts | 261° |
| 2026-05-07 01:08 | 47.25889 | 11.33148 | 2035 ft | 162 kts | 261° |
| 2026-05-07 01:08 | 47.25739 | 11.31575 | 2935 ft | 146 kts | 266° |
| 2026-05-07 01:08 | 47.25746 | 11.30036 | 3507 ft | 160 kts | 275° |
| 2026-05-07 01:09 | 47.25903 | 11.28359 | 4079 ft | 168 kts | 279° |
| 2026-05-07 01:09 | 47.26098 | 11.26647 | 4773 ft | 172 kts | 277° |
| 2026-05-07 01:09 | 47.25795 | 11.25003 | 5447 ft | 173 kts | 225° |
| 2026-05-07 01:09 | 47.24703 | 11.24359 | 6156 ft | 181 kts | 173° |
| 2026-05-07 01:10 | 47.23651 | 11.25298 | 6878 ft | 185 kts | 121° |
| 2026-05-07 01:10 | 47.23484 | 11.27138 | 7635 ft | 186 kts | 80° |
| 2026-05-07 01:10 | 47.23669 | 11.28989 | 8515 ft | 178 kts | 85° |
| 2026-05-07 01:10 | 47.23907 | 11.30803 | 9224 ft | 184 kts | 77° |
| 2026-05-07 01:11 | 47.24267 | 11.32640 | 9918 ft | 189 kts | 76° |
| 2026-05-07 01:11 | 47.24650 | 11.34518 | 10545 ft | 195 kts | 76° |
| 2026-05-07 01:11 | 47.25038 | 11.36529 | 10937 ft | 215 kts | 77° |
| 2026-05-07 01:11 | 47.25513 | 11.38715 | 11336 ft | 234 kts | 73° |
| 2026-05-07 01:12 | 47.26048 | 11.41132 | 11597 ft | 261 kts | 74° |
| 2026-05-07 01:12 | 47.26630 | 11.43798 | 11958 ft | 286 kts | 74° |
| 2026-05-07 01:12 | 47.27261 | 11.46704 | 12302 ft | 311 kts | 73° |
| 2026-05-07 01:12 | 47.27945 | 11.49859 | 12607 ft | 336 kts | 73° |
| 2026-05-07 01:13 | 47.28679 | 11.53250 | 12896 ft | 359 kts | 73° |
| 2026-05-07 01:13 | 47.29451 | 11.56815 | 13526 ft | 370 kts | 73° |
| 2026-05-07 01:13 | 47.30238 | 11.60453 | 14274 ft | 375 kts | 73° |
| 2026-05-07 01:13 | 47.31094 | 11.64101 | 15035 ft | 380 kts | 68° |
| 2026-05-07 01:14 | 47.32306 | 11.67585 | 15781 ft | 385 kts | 59° |
| 2026-05-07 01:14 | 47.33713 | 11.70974 | 16515 ft | 390 kts | 59° |
| 2026-05-07 01:14 | 47.35128 | 11.74415 | 17237 ft | 395 kts | 60° |
| 2026-05-07 01:14 | 47.36556 | 11.77907 | 17962 ft | 400 kts | 60° |
| 2026-05-07 01:15 | 47.37999 | 11.81443 | 18591 ft | 405 kts | 60° |
| 2026-05-07 01:15 | 47.39464 | 11.85040 | 19162 ft | 411 kts | 60° |
| 2026-05-07 01:15 | 47.40945 | 11.88680 | 19777 ft | 417 kts | 61° |
| 2026-05-07 01:15 | 47.42422 | 11.92316 | 20338 ft | 422 kts | 61° |
| 2026-05-07 01:16 | 47.43808 | 11.96155 | 20889 ft | 426 kts | 68° |
| 2026-05-07 01:16 | 47.45078 | 12.00137 | 21471 ft | 430 kts | 68° |
| 2026-05-07 01:16 | 47.46369 | 12.04164 | 21956 ft | 437 kts | 68° |
| 2026-05-07 01:16 | 47.47646 | 12.08139 | 22445 ft | 443 kts | 68° |
| 2026-05-07 01:17 | 47.48977 | 12.12281 | 22963 ft | 448 kts | 68° |
| 2026-05-07 01:17 | 47.50322 | 12.16476 | 23547 ft | 454 kts | 68° |
| 2026-05-07 01:17 | 47.51676 | 12.20712 | 24051 ft | 457 kts | 69° |
| 2026-05-07 01:17 | 47.53041 | 12.24991 | 24552 ft | 461 kts | 69° |
| 2026-05-07 01:18 | 47.54413 | 12.29305 | 25055 ft | 464 kts | 69° |
| 2026-05-07 01:18 | 47.55777 | 12.33600 | 25551 ft | 468 kts | 69° |
| 2026-05-07 01:18 | 47.57166 | 12.37977 | 26040 ft | 472 kts | 69° |
| 2026-05-07 01:18 | 47.58565 | 12.42395 | 26481 ft | 475 kts | 69° |
| 2026-05-07 01:19 | 47.59973 | 12.46854 | 26873 ft | 480 kts | 69° |
| 2026-05-07 01:19 | 47.61323 | 12.51135 | 27309 ft | 482 kts | 69° |
| 2026-05-07 01:19 | 47.62745 | 12.55655 | 27733 ft | 486 kts | 69° |
| 2026-05-07 01:19 | 47.64182 | 12.60229 | 28092 ft | 490 kts | 69° |
| 2026-05-07 01:20 | 47.65577 | 12.64679 | 28499 ft | 492 kts | 69° |
| 2026-05-07 01:20 | 47.67026 | 12.69306 | 28848 ft | 496 kts | 69° |
| 2026-05-07 01:20 | 47.68482 | 12.73960 | 28935 ft | 497 kts | 69° |
| 2026-05-07 01:21 | 47.71360 | 12.83188 | 28936 ft | 495 kts | 70° |
| 2026-05-07 01:21 | 47.74267 | 12.92556 | 28938 ft | 496 kts | 70° |
| 2026-05-07 01:22 | 47.77128 | 13.01802 | 28936 ft | 495 kts | 70° |
| 2026-05-07 01:22 | 47.79999 | 13.11118 | 28940 ft | 496 kts | 70° |
| 2026-05-07 01:23 | 47.82863 | 13.20448 | 28940 ft | 496 kts | 70° |
| 2026-05-07 01:23 | 47.85727 | 13.29811 | 28946 ft | 496 kts | 70° |
| 2026-05-07 01:24 | 47.88571 | 13.39140 | 28944 ft | 495 kts | 70° |
| 2026-05-07 01:24 | 47.91071 | 13.48427 | 28938 ft | 488 kts | 81° |
| 2026-05-07 01:25 | 47.91780 | 13.58277 | 28955 ft | 472 kts | 97° |
| 2026-05-07 01:25 | 47.91720 | 13.68087 | 28942 ft | 473 kts | 97° |
| 2026-05-07 01:26 | 47.91676 | 13.77898 | 28943 ft | 473 kts | 97° |
| 2026-05-07 01:26 | 47.91620 | 13.87690 | 28939 ft | 472 kts | 97° |
| 2026-05-07 01:27 | 47.91551 | 13.97470 | 28937 ft | 471 kts | 97° |
| 2026-05-07 01:27 | 47.91474 | 14.07228 | 28936 ft | 469 kts | 97° |
| 2026-05-07 01:28 | 47.91388 | 14.16982 | 28933 ft | 470 kts | 97° |
| 2026-05-07 01:28 | 47.91293 | 14.26653 | 28896 ft | 470 kts | 97° |
| 2026-05-07 01:28 | 47.91241 | 14.31608 | 28637 ft | 470 kts | 97° |
| 2026-05-07 01:29 | 47.91190 | 14.36392 | 28318 ft | 467 kts | 97° |
| 2026-05-07 01:29 | 47.91079 | 14.45944 | 28008 ft | 464 kts | 97° |
| 2026-05-07 01:29 | 47.91022 | 14.50751 | 27419 ft | 465 kts | 97° |
| 2026-05-07 01:30 | 47.90965 | 14.55557 | 26848 ft | 461 kts | 97° |
| 2026-05-07 01:30 | 47.90907 | 14.60307 | 26277 ft | 456 kts | 97° |
| 2026-05-07 01:30 | 47.90847 | 14.65008 | 25722 ft | 451 kts | 96° |
| 2026-05-07 01:30 | 47.90784 | 14.69666 | 24824 ft | 450 kts | 96° |
| 2026-05-07 01:31 | 47.90715 | 14.74357 | 23575 ft | 454 kts | 96° |
| 2026-05-07 01:31 | 47.90645 | 14.79039 | 22484 ft | 450 kts | 96° |
| 2026-05-07 01:31 | 47.90581 | 14.83650 | 21513 ft | 441 kts | 96° |
| 2026-05-07 01:31 | 47.90513 | 14.88184 | 20577 ft | 434 kts | 95° |
| 2026-05-07 01:32 | 47.90441 | 14.92653 | 19625 ft | 428 kts | 96° |
| 2026-05-07 01:32 | 47.90370 | 14.97042 | 18732 ft | 420 kts | 96° |
| 2026-05-07 01:32 | 47.90297 | 15.01384 | 17745 ft | 416 kts | 95° |
| 2026-05-07 01:32 | 47.90223 | 15.05673 | 16752 ft | 411 kts | 95° |
| 2026-05-07 01:33 | 47.90149 | 15.09912 | 15799 ft | 406 kts | 95° |
| 2026-05-07 01:33 | 47.90076 | 15.14060 | 15282 ft | 392 kts | 95° |
| 2026-05-07 01:33 | 47.90007 | 15.18012 | 15077 ft | 373 kts | 95° |
| 2026-05-07 01:33 | 47.89936 | 15.21864 | 14956 ft | 381 kts | 95° |
| 2026-05-07 01:34 | 47.89859 | 15.25809 | 14805 ft | 380 kts | 95° |
| 2026-05-07 01:34 | 47.89783 | 15.29735 | 14567 ft | 377 kts | 95° |
| 2026-05-07 01:34 | 47.89708 | 15.33660 | 14318 ft | 380 kts | 95° |
| 2026-05-07 01:34 | 47.89631 | 15.37593 | 14077 ft | 377 kts | 94° |
| 2026-05-07 01:35 | 47.89559 | 15.41451 | 13832 ft | 372 kts | 94° |
| 2026-05-07 01:35 | 47.89487 | 15.45290 | 13566 ft | 370 kts | 94° |
| 2026-05-07 01:35 | 47.89239 | 15.49092 | 13339 ft | 368 kts | 103° |
| 2026-05-07 01:35 | 47.88657 | 15.52788 | 13095 ft | 364 kts | 107° |
| 2026-05-07 01:36 | 47.88040 | 15.56438 | 12850 ft | 363 kts | 107° |
| 2026-05-07 01:36 | 47.87434 | 15.60071 | 12613 ft | 360 kts | 107° |
| 2026-05-07 01:36 | 47.86836 | 15.63650 | 12387 ft | 361 kts | 107° |
| 2026-05-07 01:36 | 47.86230 | 15.67273 | 12151 ft | 360 kts | 107° |
| 2026-05-07 01:37 | 47.85625 | 15.70879 | 11916 ft | 358 kts | 107° |
| 2026-05-07 01:37 | 47.85021 | 15.74471 | 11689 ft | 357 kts | 106° |
| 2026-05-07 01:37 | 47.84418 | 15.78051 | 11450 ft | 356 kts | 106° |
| 2026-05-07 01:37 | 47.83812 | 15.81632 | 11216 ft | 355 kts | 106° |
| 2026-05-07 01:38 | 47.83210 | 15.85185 | 10987 ft | 352 kts | 106° |
| 2026-05-07 01:38 | 47.82618 | 15.88679 | 10793 ft | 349 kts | 106° |
| 2026-05-07 01:38 | 47.82033 | 15.92126 | 10688 ft | 338 kts | 106° |
| 2026-05-07 01:38 | 47.81469 | 15.95455 | 10572 ft | 326 kts | 106° |
| 2026-05-07 01:39 | 47.80925 | 15.98655 | 10445 ft | 313 kts | 106° |
| 2026-05-07 01:39 | 47.80396 | 16.01754 | 10166 ft | 307 kts | 106° |
| 2026-05-07 01:39 | 47.79869 | 16.04828 | 9776 ft | 306 kts | 106° |
| 2026-05-07 01:39 | 47.79349 | 16.07863 | 9531 ft | 298 kts | 107° |
| 2026-05-07 01:40 | 47.78845 | 16.10801 | 9427 ft | 299 kts | 107° |
| 2026-05-07 01:40 | 47.78328 | 16.13801 | 9231 ft | 299 kts | 107° |
| 2026-05-07 01:40 | 47.77814 | 16.16780 | 9082 ft | 296 kts | 107° |
| 2026-05-07 01:40 | 47.77300 | 16.19751 | 8950 ft | 297 kts | 107° |
| 2026-05-07 01:41 | 47.76787 | 16.22719 | 8814 ft | 296 kts | 107° |
| 2026-05-07 01:41 | 47.76125 | 16.25594 | 8684 ft | 294 kts | 113° |
| 2026-05-07 01:41 | 47.75406 | 16.28446 | 8553 ft | 294 kts | 112° |
| 2026-05-07 01:41 | 47.74695 | 16.31294 | 8425 ft | 293 kts | 112° |
| 2026-05-07 01:42 | 47.74225 | 16.33178 | 8350 ft | 293 kts | 112° |
| 2026-05-07 01:42 | 47.73516 | 16.36023 | 8207 ft | 293 kts | 112° |
| 2026-05-07 01:42 | 47.72808 | 16.38855 | 8085 ft | 292 kts | 112° |
| 2026-05-07 01:42 | 47.72099 | 16.41681 | 7956 ft | 292 kts | 112° |
| 2026-05-07 01:43 | 47.71389 | 16.44510 | 7825 ft | 292 kts | 112° |
| 2026-05-07 01:43 | 47.70680 | 16.47330 | 7712 ft | 291 kts | 112° |
| 2026-05-07 01:43 | 47.69972 | 16.50142 | 7577 ft | 291 kts | 112° |
| 2026-05-07 01:43 | 47.69263 | 16.52954 | 7456 ft | 290 kts | 112° |
| 2026-05-07 01:44 | 47.68554 | 16.55763 | 7328 ft | 291 kts | 112° |
| 2026-05-07 01:44 | 47.67844 | 16.58572 | 7206 ft | 290 kts | 112° |
| 2026-05-07 01:44 | 47.67146 | 16.61337 | 7087 ft | 290 kts | 111° |
| 2026-05-07 01:44 | 47.66770 | 16.64281 | 6893 ft | 293 kts | 91° |
| 2026-05-07 01:45 | 47.67104 | 16.67250 | 6640 ft | 293 kts | 74° |
| 2026-05-07 01:45 | 47.67674 | 16.70156 | 6387 ft | 292 kts | 72° |
| 2026-05-07 01:45 | 47.68656 | 16.72752 | 6123 ft | 289 kts | 45° |
| 2026-05-07 01:45 | 47.70275 | 16.74427 | 5872 ft | 282 kts | 18° |
| 2026-05-07 01:46 | 47.72166 | 16.74838 | 5615 ft | 275 kts | 351° |
| 2026-05-07 01:46 | 47.73765 | 16.74294 | 5398 ft | 271 kts | 340° |
| 2026-05-07 01:46 | 47.75540 | 16.73368 | 5139 ft | 269 kts | 338° |
| 2026-05-07 01:46 | 47.77302 | 16.72430 | 4887 ft | 268 kts | 339° |
| 2026-05-07 01:47 | 47.79070 | 16.71565 | 4621 ft | 268 kts | 341° |
| 2026-05-07 01:47 | 47.80850 | 16.70765 | 4368 ft | 265 kts | 342° |
| 2026-05-07 01:47 | 47.82628 | 16.70076 | 4114 ft | 264 kts | 346° |
| 2026-05-07 01:47 | 47.84401 | 16.69444 | 4001 ft | 258 kts | 344° |
| 2026-05-07 01:48 | 47.86091 | 16.68783 | 3951 ft | 245 kts | 343° |
| 2026-05-07 01:48 | 47.87672 | 16.68123 | 3860 ft | 232 kts | 342° |
| 2026-05-07 01:48 | 47.89186 | 16.67482 | 3751 ft | 219 kts | 342° |
| 2026-05-07 01:48 | 47.90602 | 16.66883 | 3554 ft | 206 kts | 342° |
| 2026-05-07 01:49 | 47.91958 | 16.66307 | 3355 ft | 199 kts | 342° |
| 2026-05-07 01:49 | 47.93322 | 16.65726 | 3276 ft | 206 kts | 342° |
| 2026-05-07 01:49 | 47.94692 | 16.65146 | 3182 ft | 202 kts | 341° |
| 2026-05-07 01:49 | 47.96044 | 16.64575 | 3097 ft | 202 kts | 340° |
| 2026-05-07 01:50 | 47.97399 | 16.63997 | 2885 ft | 201 kts | 340° |
| 2026-05-07 01:50 | 47.98725 | 16.63437 | 2657 ft | 196 kts | 339° |
| 2026-05-07 01:50 | 48.00008 | 16.62894 | 2452 ft | 183 kts | 339° |
| 2026-05-07 01:50 | 48.01151 | 16.62412 | 2199 ft | 159 kts | 338° |
| 2026-05-07 01:51 | 48.02144 | 16.61990 | 1989 ft | 142 kts | 338° |
| 2026-05-07 01:51 | 48.03080 | 16.61591 | 1809 ft | 137 kts | 337° |
| 2026-05-07 01:51 | 48.03985 | 16.61204 | 1633 ft | 138 kts | 336° |
| 2026-05-07 01:51 | 48.04930 | 16.60800 | 1439 ft | 140 kts | 339° |
| 2026-05-07 01:52 | 48.05854 | 16.60411 | 1247 ft | 143 kts | 339° |
| 2026-05-07 01:52 | 48.06812 | 16.60003 | 1049 ft | 144 kts | 340° |
| 2026-05-07 01:52 | 48.07766 | 16.59606 | 886 ft | 140 kts | 340° |
| 2026-05-07 01:52 | 48.08695 | 16.59215 | 682 ft | 136 kts | 339° |
| 2026-05-07 01:53 | 48.09552 | 16.58842 | 611 ft | 108 kts | 345° |
| 2026-05-07 01:53 | 48.10079 | 16.58622 | 616 ft | 50 kts | 344° |
| 2026-05-07 01:53 | 48.10351 | 16.58482 | 621 ft | 34 kts | 326° |
| 2026-05-07 01:53 | 48.10466 | 16.58249 | 621 ft | 22 kts | 299° |
| 2026-05-07 01:54 | 48.10570 | 16.58134 | 610 ft | 18 kts | 344° |
| 2026-05-07 01:54 | 48.10693 | 16.58081 | 615 ft | 19 kts | 344° |
| 2026-05-07 01:54 | 48.10827 | 16.58023 | 620 ft | 21 kts | 343° |
| 2026-05-07 01:54 | 48.10953 | 16.57972 | 614 ft | 16 kts | 345° |
| 2026-05-07 01:55 | 48.11050 | 16.57931 | 616 ft | 11 kts | 343° |
| 2026-05-07 01:55 | 48.11057 | 16.57928 | 612 ft | 0 kts | 343° |
| 2026-05-07 01:55 | 48.11058 | 16.57928 | 617 ft | 1 kts | 343° |
| 2026-05-07 01:55 | 48.11082 | 16.57914 | 619 ft | 8 kts | 330° |
| 2026-05-07 01:56 | 48.11130 | 16.57799 | 617 ft | 18 kts | 295° |
| 2026-05-07 01:56 | 48.11190 | 16.57613 | 617 ft | 20 kts | 297° |
| 2026-05-07 01:56 | 48.11250 | 16.57430 | 618 ft | 19 kts | 296° |
| 2026-05-07 01:56 | 48.11304 | 16.57267 | 615 ft | 16 kts | 297° |
| 2026-05-07 01:57 | 48.11358 | 16.57099 | 621 ft | 23 kts | 295° |
| 2026-05-07 01:57 | 48.11437 | 16.56857 | 618 ft | 26 kts | 296° |
| 2026-05-07 01:57 | 48.11515 | 16.56617 | 619 ft | 25 kts | 296° |
| 2026-05-07 01:57 | 48.11592 | 16.56383 | 613 ft | 25 kts | 296° |
| 2026-05-07 01:58 | 48.11668 | 16.56150 | 616 ft | 25 kts | 295° |
| 2026-05-07 01:58 | 48.11742 | 16.55921 | 612 ft | 24 kts | 295° |
| 2026-05-07 01:58 | 48.11815 | 16.55696 | 617 ft | 24 kts | 295° |
| 2026-05-07 01:58 | 48.11870 | 16.55529 | 617 ft | 13 kts | 294° |
| 2026-05-07 01:59 | 48.11911 | 16.55445 | 612 ft | 9 kts | 353° |
| 2026-05-07 01:59 | 48.11963 | 16.55472 | 618 ft | 7 kts | 24° |
| 2026-05-07 01:59 | 48.11991 | 16.55517 | 621 ft | 6 kts | 82° |
| 2026-05-07 01:59 | 48.11988 | 16.55564 | 616 ft | 3 kts | 97° |
| 2026-05-07 02:00 | 48.11985 | 16.55588 | 610 ft | 0 kts | 102° |